createdAt,value
2023-03-13T00:02:21.532Z,67.69
2023-03-13T00:04:49.707Z,67.70
2023-03-13T00:07:20.048Z,67.73
2023-03-13T00:09:54.004Z,67.68
2023-03-13T00:12:21.945Z,67.84
2023-03-13T00:14:51.466Z,68.04
2023-03-13T00:17:27.777Z,67.96
2023-03-13T00:19:58.509Z,68.06
2023-03-13T00:22:26.546Z,68.12
2023-03-13T00:24:55.761Z,68.12
2023-03-13T00:27:24.095Z,67.99
2023-03-13T00:29:52.513Z,68.06
2023-03-13T00:32:23.893Z,68.11
2023-03-13T00:34:53.577Z,68.11
2023-03-13T00:37:21.437Z,68.25
2023-03-13T00:39:54.888Z,68.21
2023-03-13T00:42:22.975Z,68.18
2023-03-13T00:44:53.805Z,68.19
2023-03-13T00:47:21.799Z,68.21
2023-03-13T00:49:50.327Z,68.17
2023-03-13T00:52:18.190Z,68.33
2023-03-13T00:54:46.265Z,68.15
2023-03-13T00:57:14.104Z,68.18
2023-03-13T00:59:45.167Z,68.28
2023-03-13T01:02:16.954Z,68.33
2023-03-13T01:04:45.261Z,68.44
2023-03-13T01:07:15.789Z,68.44
2023-03-13T01:09:43.648Z,68.34
2023-03-13T01:12:12.132Z,68.03
2023-03-13T01:14:42.684Z,68.16
2023-03-13T01:17:12.772Z,67.94
2023-03-13T01:19:40.693Z,68.01
2023-03-13T01:22:12.664Z,68.32
2023-03-13T01:24:50.015Z,68.56
2023-03-13T01:27:19.201Z,68.62
2023-03-13T01:29:47.403Z,68.68
2023-03-13T01:32:15.352Z,69.00
2023-03-13T01:34:49.453Z,69.08
2023-03-13T01:37:19.157Z,69.19
2023-03-13T01:39:47.042Z,69.07
2023-03-13T01:42:15.340Z,69.25
2023-03-13T01:44:51.172Z,69.36
2023-03-13T01:47:19.156Z,69.58
2023-03-13T01:49:58.062Z,69.66
2023-03-13T01:52:53.892Z,69.85
2023-03-13T01:55:32.281Z,69.95
2023-03-13T01:58:02.678Z,70.03
2023-03-13T02:00:32.929Z,70.18
2023-03-13T02:03:05.555Z,70.33
2023-03-13T02:05:36.450Z,70.68
2023-03-13T02:08:07.955Z,70.80
2023-03-13T02:10:39.994Z,70.96
2023-03-13T02:13:10.892Z,71.24
2023-03-13T02:15:40.629Z,71.34
2023-03-13T02:18:10.047Z,71.20
2023-03-13T02:20:45.489Z,71.40
2023-03-13T02:23:21.524Z,71.59
2023-03-13T02:25:50.192Z,71.79
2023-03-13T02:28:33.879Z,71.92
2023-03-13T02:31:05.131Z,72.08
2023-03-13T02:33:38.617Z,72.10
2023-03-13T02:36:10.303Z,72.34
2023-03-13T02:38:44.529Z,72.32
2023-03-13T02:41:12.373Z,72.23
2023-03-13T02:43:44.521Z,72.47
2023-03-13T02:46:14.765Z,72.33
2023-03-13T02:48:55.275Z,72.36
2023-03-13T02:51:30.006Z,72.33
2023-03-13T02:54:08.669Z,72.40
2023-03-13T02:56:37.974Z,72.41
2023-03-13T02:59:07.187Z,72.24
2023-03-13T03:01:37.481Z,72.28
2023-03-13T03:04:05.567Z,72.34
2023-03-13T03:06:38.624Z,72.50
2023-03-13T03:09:07.177Z,72.55
2023-03-13T03:11:36.478Z,72.52
2023-03-13T03:14:07.965Z,72.45
2023-03-13T03:16:39.338Z,72.49
2023-03-13T03:19:08.392Z,72.46
2023-03-13T03:21:37.825Z,72.46
2023-03-13T03:24:06.012Z,72.29
2023-03-13T03:26:35.032Z,72.39
2023-03-13T03:29:05.979Z,72.27
2023-03-13T03:31:34.324Z,72.43
2023-03-13T03:34:02.712Z,72.39
2023-03-13T03:36:30.641Z,72.44
2023-03-13T03:38:59.250Z,72.36
2023-03-13T03:41:27.659Z,72.18
2023-03-13T03:43:55.797Z,72.32
2023-03-13T03:46:26.007Z,72.34
2023-03-13T03:48:59.149Z,72.47
2023-03-13T03:51:28.829Z,72.32
2023-03-13T03:53:58.255Z,72.44
2023-03-13T03:56:26.470Z,72.62
2023-03-13T03:58:58.705Z,72.80
2023-03-13T04:01:45.621Z,72.80
2023-03-13T04:04:15.128Z,72.88
2023-03-13T04:06:46.975Z,73.23
2023-03-13T04:09:15.156Z,73.31
2023-03-13T04:11:48.661Z,73.16
2023-03-13T04:14:18.038Z,73.32
2023-03-13T04:16:46.601Z,73.33
2023-03-13T04:19:18.093Z,73.38
2023-03-13T04:21:47.583Z,73.41
2023-03-13T04:24:19.811Z,73.67
2023-03-13T04:26:48.997Z,73.79
2023-03-13T04:29:17.240Z,73.88
2023-03-13T04:32:04.116Z,74.08
2023-03-13T04:34:38.833Z,74.06
2023-03-13T04:37:18.422Z,74.32
2023-03-13T04:40:21.814Z,74.30
2023-03-13T04:43:09.275Z,74.45
2023-03-13T04:46:04.705Z,74.79
2023-03-13T04:49:08.894Z,75.10
2023-03-13T04:51:43.207Z,74.31
2023-03-13T04:54:25.821Z,74.01
2023-03-13T04:57:08.525Z,74.19
2023-03-13T05:00:20.831Z,72.69
2023-03-13T05:03:09.610Z,70.88
2023-03-13T05:05:58.695Z,68.79
2023-03-13T05:08:43.438Z,66.22
2023-03-13T05:11:31.736Z,63.56
2023-03-13T05:13:59.684Z,61.29
2023-03-13T05:16:53.506Z,58.65
2023-03-13T05:19:39.760Z,56.17
2023-03-13T05:22:21.733Z,54.18
2023-03-13T05:24:55.800Z,52.09
2023-03-13T05:27:37.500Z,50.39
2023-03-13T05:30:15.316Z,48.93
2023-03-13T05:33:07.123Z,47.29
2023-03-13T05:35:48.106Z,46.03
2023-03-13T05:38:49.002Z,44.48
2023-03-13T05:41:46.031Z,42.76
2023-03-13T05:44:56.028Z,40.49
2023-03-13T05:47:43.747Z,39.30
2023-03-13T05:50:14.465Z,38.58
2023-03-13T05:53:01.170Z,37.49
2023-03-13T05:55:47.812Z,36.79
2023-03-13T05:58:36.379Z,36.54
2023-03-13T06:01:22.367Z,36.22
2023-03-13T06:04:03.138Z,35.59
2023-03-13T06:06:32.595Z,35.74
2023-03-13T06:09:04.117Z,35.87
2023-03-13T06:11:33.943Z,35.82
2023-03-13T06:14:02.373Z,34.82
2023-03-13T06:16:44.789Z,33.86
2023-03-13T06:19:16.755Z,33.49
2023-03-13T06:21:45.853Z,32.23
2023-03-13T06:24:13.811Z,31.55
2023-03-13T06:26:42.087Z,31.11
2023-03-13T06:29:11.390Z,30.40
2023-03-13T06:31:39.632Z,29.86
2023-03-13T06:34:13.248Z,29.41
2023-03-13T06:36:41.396Z,29.82
2023-03-13T06:39:11.834Z,29.50
2023-03-13T06:41:40.077Z,29.37
2023-03-13T06:44:08.115Z,29.40
2023-03-13T06:46:42.111Z,30.04
2023-03-13T06:49:10.225Z,30.30
2023-03-13T06:51:38.164Z,31.16
2023-03-13T06:54:06.162Z,31.91
2023-03-13T06:56:34.248Z,32.61
2023-03-13T06:59:03.396Z,33.35
2023-03-13T07:01:31.604Z,34.07
2023-03-13T07:04:05.491Z,34.69
2023-03-13T07:06:34.224Z,35.53
2023-03-13T07:09:03.075Z,36.06
2023-03-13T07:11:33.963Z,36.53
2023-03-13T07:14:15.865Z,37.18
2023-03-13T07:16:45.494Z,38.08
2023-03-13T07:19:13.746Z,38.50
2023-03-13T07:21:42.411Z,38.59
2023-03-13T07:24:14.808Z,38.65
2023-03-13T07:29:21.745Z,39.16
2023-03-13T07:31:50.165Z,39.48
2023-03-13T07:34:18.279Z,39.71
2023-03-13T07:36:48.771Z,39.86
2023-03-13T07:39:16.983Z,39.83
2023-03-13T07:41:46.165Z,40.45
2023-03-13T07:44:17.380Z,41.24
2023-03-13T07:46:48.441Z,41.25
2023-03-13T07:49:17.597Z,41.42
2023-03-13T07:51:48.190Z,41.84
2023-03-13T07:54:28.598Z,41.49
2023-03-13T07:56:57.061Z,41.88
2023-03-13T07:59:25.293Z,42.36
2023-03-13T08:01:56.230Z,42.35
2023-03-13T08:04:24.413Z,42.23
2023-03-13T08:06:56.822Z,42.01
2023-03-13T08:09:25.497Z,41.87
2023-03-13T08:11:53.773Z,42.41
2023-03-13T08:14:21.719Z,42.08
2023-03-13T08:16:50.765Z,41.79
2023-03-13T08:19:23.124Z,41.82
2023-03-13T08:21:51.178Z,42.01
2023-03-13T10:03:42.825Z,46.15
2023-03-13T10:06:15.215Z,46.21
2023-03-13T10:08:45.847Z,46.31
2023-03-13T10:11:22.640Z,46.03
2023-03-13T10:13:58.498Z,45.40
2023-03-13T10:16:38.938Z,45.32
2023-03-13T10:19:19.821Z,44.77
2023-03-13T10:21:54.019Z,44.56
2023-03-13T10:24:57.965Z,44.01
2023-03-13T10:27:30.329Z,43.37
2023-03-13T10:30:00.832Z,43.40
2023-03-13T10:32:31.813Z,43.26
2023-03-13T10:35:01.227Z,43.66
2023-03-13T10:37:40.421Z,44.06
2023-03-13T10:40:25.153Z,43.84
2023-03-13T10:42:54.360Z,43.73
2023-03-13T10:45:25.369Z,43.78
2023-03-13T10:47:57.474Z,43.64
2023-03-13T10:50:26.350Z,43.63
2023-03-13T10:52:56.568Z,43.98
2023-03-13T10:55:25.770Z,44.07
2023-03-13T10:58:01.603Z,44.21
2023-03-13T11:00:30.739Z,44.45
2023-03-13T11:02:59.929Z,44.70
2023-03-13T11:05:32.954Z,44.72
2023-03-13T11:08:11.553Z,44.50
2023-03-13T11:10:52.314Z,44.38
2023-03-13T11:13:37.475Z,44.67
2023-03-13T11:16:26.386Z,44.21
2023-03-13T11:19:17.440Z,44.61
2023-03-13T11:22:00.977Z,44.27
2023-03-13T11:24:36.223Z,43.65
2023-03-13T11:27:35.604Z,43.19
2023-03-13T11:30:06.423Z,43.20
2023-03-13T11:32:40.129Z,43.60
2023-03-13T11:35:36.867Z,43.57
2023-03-13T11:38:13.678Z,43.60
2023-03-13T11:41:01.429Z,43.24
2023-03-13T11:43:55.182Z,43.06
2023-03-13T11:46:46.948Z,43.65
2023-03-13T11:49:17.630Z,43.76
2023-03-13T11:51:58.739Z,44.08
2023-03-13T11:54:31.334Z,44.29
2023-03-13T11:57:09.507Z,43.77
2023-03-13T12:00:14.842Z,43.85
2023-03-13T12:02:53.257Z,43.70
2023-03-13T12:05:21.302Z,43.45
2023-03-13T12:07:53.888Z,43.40
2023-03-13T12:10:52.516Z,43.30
2023-03-13T12:13:41.865Z,43.29
2023-03-13T12:16:12.396Z,43.12
2023-03-13T12:18:41.796Z,43.04
2023-03-13T12:21:20.171Z,42.97
2023-03-13T12:24:23.141Z,43.13
2023-03-13T12:27:06.076Z,42.93
2023-03-13T12:30:01.990Z,42.72
2023-03-13T12:32:37.042Z,43.04
2023-03-13T12:35:22.244Z,43.39
2023-03-13T12:38:05.190Z,43.87
2023-03-13T12:40:37.648Z,43.11
2023-03-13T12:43:09.775Z,43.25
2023-03-13T12:45:45.414Z,43.40
2023-03-13T12:48:16.678Z,43.83
2023-03-13T12:50:49.185Z,43.48
2023-03-13T12:53:36.648Z,43.45
2023-03-13T12:56:36.129Z,43.63
2023-03-13T12:59:13.789Z,43.68
2023-03-13T13:01:44.080Z,43.94
2023-03-13T13:04:13.129Z,44.06
2023-03-13T13:07:03.645Z,43.80
2023-03-13T13:10:02.751Z,43.94
2023-03-13T13:12:32.587Z,43.62
2023-03-13T13:15:05.240Z,43.28
2023-03-13T13:17:37.790Z,43.44
2023-03-13T13:20:33.746Z,43.06
2023-03-13T13:23:20.316Z,43.24
2023-03-13T13:25:51.045Z,43.67
2023-03-13T13:28:44.601Z,43.47
2023-03-13T13:31:48.164Z,43.57
2023-03-13T13:34:36.615Z,43.64
2023-03-13T13:37:20.404Z,44.01
2023-03-13T13:39:52.791Z,44.08
2023-03-13T13:42:33.097Z,44.18
2023-03-13T13:45:02.303Z,44.26
2023-03-13T13:47:33.660Z,44.26
2023-03-13T13:50:02.696Z,44.12
2023-03-13T13:52:39.296Z,43.89
2023-03-13T13:55:26.269Z,44.01
2023-03-13T13:57:59.994Z,44.01
2023-03-13T14:00:29.210Z,44.08
2023-03-13T14:02:56.997Z,44.29
2023-03-13T14:05:27.076Z,43.98
2023-03-13T14:08:13.421Z,44.33
2023-03-13T14:10:43.857Z,44.70
2023-03-13T14:13:20.875Z,44.70
2023-03-13T14:15:50.256Z,45.14
2023-03-13T14:18:23.258Z,44.86
2023-03-13T14:21:03.815Z,45.12
2023-03-13T14:23:42.817Z,45.28
2023-03-13T14:26:11.951Z,45.38
2023-03-13T14:28:43.347Z,45.41
2023-03-13T14:31:12.290Z,45.42
2023-03-13T14:33:40.361Z,45.61
2023-03-13T14:36:08.481Z,45.44
2023-03-13T14:38:36.804Z,45.81
2023-03-13T14:41:05.829Z,46.09
2023-03-13T14:43:36.094Z,45.95
2023-03-13T14:46:15.688Z,45.93
2023-03-13T14:48:43.855Z,46.06
2023-03-13T14:51:18.983Z,45.94
2023-03-13T14:53:58.251Z,46.17
2023-03-13T14:56:31.118Z,46.60
2023-03-13T14:59:19.641Z,46.71
2023-03-13T15:01:58.670Z,46.83
2023-03-13T15:04:51.863Z,46.88
2023-03-13T15:07:20.349Z,46.87
2023-03-13T15:09:53.580Z,46.86
2023-03-13T15:12:22.998Z,46.99
2023-03-13T15:14:52.381Z,47.07
2023-03-13T15:17:27.229Z,47.18
2023-03-13T15:19:56.871Z,47.20
2023-03-13T15:22:28.035Z,47.27
2023-03-13T15:25:06.061Z,47.29
2023-03-13T15:27:36.818Z,47.12
2023-03-13T15:30:09.501Z,47.30
2023-03-13T15:32:39.071Z,47.36
2023-03-13T15:35:30.220Z,47.29
2023-03-13T15:37:59.478Z,47.53
2023-03-13T15:40:31.178Z,47.57
2023-03-13T15:42:59.658Z,47.69
2023-03-13T15:45:27.665Z,47.87
2023-03-13T15:48:00.542Z,48.11
2023-03-13T18:03:38.522Z,55.95
2023-03-13T18:06:29.936Z,56.04
2023-03-13T18:09:08.016Z,56.16
2023-03-13T18:11:41.958Z,56.24
2023-03-13T18:14:11.046Z,56.30
2023-03-13T18:16:43.165Z,56.41
2023-03-13T18:19:16.450Z,56.43
2023-03-13T18:21:44.908Z,56.64
2023-03-13T18:24:18.370Z,56.61
2023-03-13T18:26:47.972Z,56.48
2023-03-13T18:29:26.074Z,56.47
2023-03-13T18:31:55.601Z,56.44
2023-03-13T18:34:26.010Z,56.44
2023-03-13T18:36:57.092Z,56.32
2023-03-13T18:39:25.328Z,56.27
2023-03-13T18:41:53.293Z,56.13
2023-03-13T18:44:21.712Z,56.24
2023-03-13T18:46:51.320Z,56.11
2023-03-13T18:49:21.695Z,56.12
2023-03-13T18:51:50.973Z,56.13
2023-03-13T18:54:18.893Z,56.22
2023-03-13T18:56:47.743Z,56.32
2023-03-13T18:59:20.954Z,56.39
2023-03-13T19:01:48.856Z,56.67
2023-03-13T19:04:16.921Z,56.73
2023-03-13T19:06:46.029Z,56.71
2023-03-13T19:09:41.484Z,56.68
2023-03-13T19:12:07.375Z,56.72
2023-03-13T19:14:36.533Z,56.73
2023-03-13T19:17:12.008Z,56.83
2023-03-13T19:19:41.036Z,56.58
2023-03-13T19:22:10.909Z,56.59
2023-03-13T19:24:39.068Z,56.66
2023-03-13T19:27:13.170Z,56.45
2023-03-13T19:29:42.119Z,56.52
2023-03-13T19:32:17.504Z,56.41
2023-03-13T19:34:46.063Z,56.42
2023-03-13T19:37:15.314Z,56.30
2023-03-13T19:39:44.246Z,56.39
2023-03-13T19:42:12.352Z,56.44
2023-03-13T19:44:44.370Z,56.44
2023-03-13T19:47:14.626Z,56.51
2023-03-13T19:49:43.109Z,56.62
2023-03-13T19:52:11.869Z,56.64
2023-03-13T19:54:39.871Z,56.55
2023-03-13T19:57:11.218Z,56.59
2023-03-13T19:59:40.186Z,56.46
2023-03-13T20:02:11.113Z,56.59
2023-03-13T20:04:43.402Z,56.57
2023-03-13T20:07:11.311Z,56.47
2023-03-13T20:09:39.270Z,56.50
2023-03-13T20:12:07.438Z,56.63
2023-03-13T20:14:36.358Z,56.72
2023-03-13T20:17:06.177Z,56.64
2023-03-13T20:19:34.568Z,56.69
2023-03-13T20:22:05.505Z,56.72
2023-03-13T20:24:34.374Z,56.67
2023-03-13T20:27:06.371Z,56.66
2023-03-13T20:29:35.930Z,56.70
2023-03-13T20:32:05.941Z,56.52
2023-03-13T20:34:36.899Z,56.62
2023-03-13T20:37:05.080Z,56.68
2023-03-13T20:39:37.543Z,56.61
2023-03-13T20:42:07.974Z,56.68
2023-03-13T20:44:35.973Z,56.62
2023-03-13T20:47:04.315Z,56.62
2023-03-13T20:49:35.883Z,56.65
2023-03-13T20:52:05.939Z,56.75
2023-03-13T20:54:37.667Z,56.77
2023-03-13T20:57:08.826Z,56.74
2023-03-13T20:59:37.381Z,56.81
2023-03-13T21:02:07.716Z,56.92
2023-03-13T21:04:37.408Z,57.01
2023-03-13T21:07:05.723Z,57.12
2023-03-13T21:09:36.581Z,57.16
2023-03-13T21:12:05.235Z,57.36
2023-03-13T21:14:35.098Z,57.34
2023-03-13T21:17:05.868Z,57.58
2023-03-13T21:19:34.219Z,57.71
2023-03-13T21:22:02.221Z,57.80
2023-03-13T21:24:33.194Z,57.95
2023-03-13T21:27:03.658Z,58.03
2023-03-13T21:29:37.672Z,58.04
2023-03-13T21:32:06.521Z,58.24
2023-03-13T21:34:34.534Z,58.37
2023-03-13T21:37:02.558Z,58.54
2023-03-13T21:39:31.030Z,58.54
2023-03-13T21:42:00.085Z,58.86
2023-03-13T21:44:28.186Z,58.95
2023-03-13T21:46:58.649Z,59.11
2023-03-13T21:49:29.413Z,59.15
2023-03-13T21:51:57.526Z,59.25
2023-03-13T21:54:27.821Z,59.29
2023-03-13T21:56:57.065Z,59.38
2023-03-13T21:59:27.431Z,59.44
2023-03-13T22:01:55.399Z,59.55
2023-03-13T22:04:23.391Z,59.48
2023-03-13T22:06:51.583Z,59.63
2023-03-13T22:09:19.612Z,59.64
2023-03-13T22:11:47.710Z,59.83
2023-03-13T22:14:16.791Z,59.73
2023-03-13T22:16:44.971Z,59.80
2023-03-13T22:19:17.632Z,60.03
2023-03-13T22:21:46.306Z,60.16
2023-03-13T22:24:17.055Z,60.29
2023-03-13T22:26:44.855Z,60.28
2023-03-13T22:29:12.888Z,60.44
2023-03-13T22:31:41.937Z,60.48
2023-03-13T22:34:10.160Z,60.66
2023-03-13T22:36:38.228Z,60.69
2023-03-13T22:39:07.287Z,60.73
2023-03-13T22:41:35.827Z,60.98
2023-03-13T22:44:04.288Z,60.98
2023-03-13T22:46:33.213Z,60.91
2023-03-13T22:49:01.033Z,61.05
2023-03-13T22:51:29.473Z,61.16
2023-03-13T22:53:57.769Z,61.29
2023-03-13T22:56:27.818Z,61.18
2023-03-13T22:58:56.653Z,61.20
2023-03-13T23:01:26.632Z,61.15
2023-03-13T23:03:54.783Z,61.19
2023-03-13T23:06:23.889Z,61.24
2023-03-13T23:08:54.949Z,61.42
2023-03-13T23:11:22.911Z,61.37
2023-03-13T23:13:51.354Z,61.50
2023-03-13T23:16:19.600Z,61.58
2023-03-13T23:18:47.434Z,61.70
2023-03-13T23:21:16.628Z,61.75
2023-03-13T23:23:45.061Z,61.85
2023-03-13T23:26:16.180Z,61.85
2023-03-13T23:28:47.189Z,61.80
2023-03-13T23:31:17.112Z,61.93
2023-03-13T23:33:47.752Z,61.96
2023-03-13T23:36:17.577Z,62.08
2023-03-13T23:38:48.692Z,62.10
2023-03-13T23:41:16.590Z,62.10
2023-03-13T23:43:44.856Z,62.17
2023-03-13T23:46:21.134Z,62.16
2023-03-13T23:48:52.771Z,62.15
2023-03-13T23:51:24.718Z,62.15
2023-03-13T23:53:52.648Z,62.23
2023-03-13T23:56:20.476Z,62.33
2023-03-13T23:58:55.078Z,62.40
